Time;durP1;ratioP1;P1;durP2;ratioP2;P2;SDS_P1;SDS_P2;PMS_P1;PMS_P2;Temp;Humidity;BMP_temperature;BMP_pressure;BME280_temperature;BME280_humidity;BME280_pressure;Samples;Min_cycle;Max_cycle;Signal;HPM_P1;HPM_P2
2022/03/08 00:04:38;;;;;;;13.23;7.43;;;1.00;76.90;;;;;;10352623;28;20598;-75
2022/03/08 00:09:39;;;;;;;10.67;7.17;;;1.00;77.60;;;;;;10347716;28;20209;-75
2022/03/08 00:14:40;;;;;;;11.27;7.30;;;0.90;76.70;;;;;;10352844;28;20240;-76
2022/03/08 00:19:40;;;;;;;10.77;7.73;;;1.00;76.80;;;;;;10351420;28;20229;-74
2022/03/08 00:24:53;;;;;;;12.90;7.43;;;0.90;77.00;;;;;;10345430;28;20273;-74
2022/03/08 00:29:54;;;;;;;11.03;7.53;;;0.90;77.30;;;;;;10333134;28;20643;-74
2022/03/08 00:34:55;;;;;;;13.03;8.20;;;0.90;77.80;;;;;;10357708;28;20214;-75
2022/03/08 00:39:55;;;;;;;11.60;7.53;;;0.90;78.00;;;;;;10353483;28;20541;-74
2022/03/08 00:44:56;;;;;;;10.83;7.60;;;0.80;78.50;;;;;;10344035;28;20661;-75
2022/03/08 00:50:04;;;;;;;9.77;7.33;;;0.80;78.80;;;;;;10346487;28;20214;-75
2022/03/08 00:55:07;;;;;;;11.07;7.03;;;0.80;79.20;;;;;;10348872;28;20725;-74
2022/03/08 01:00:13;;;;;;;9.60;7.40;;;0.70;79.30;;;;;;10343102;28;20205;-75
2022/03/08 01:05:14;;;;;;;10.10;6.80;;;0.70;79.60;;;;;;10375444;28;20324;-74
2022/03/08 01:10:20;;;;;;;12.47;7.97;;;0.60;79.80;;;;;;10351424;28;20264;-74
2022/03/08 01:15:24;;;;;;;11.50;7.83;;;0.50;81.00;;;;;;10354321;28;20182;-75
2022/03/08 01:20:25;;;;;;;10.43;7.83;;;0.50;81.90;;;;;;10350709;28;20319;-74
2022/03/08 01:25:26;;;;;;;10.77;8.00;;;0.50;82.80;;;;;;10351449;28;20213;-75
2022/03/08 01:30:40;;;;;;;12.47;7.90;;;0.40;83.20;;;;;;10353150;28;20226;-74
2022/03/08 01:35:41;;;;;;;11.63;8.30;;;0.40;84.00;;;;;;10353169;28;20218;-74
2022/03/08 01:40:41;;;;;;;10.77;7.87;;;0.40;84.70;;;;;;10351350;28;20776;-76
2022/03/08 01:45:43;;;;;;;11.03;7.97;;;0.30;84.90;;;;;;10355017;28;20219;-74
2022/03/08 01:50:45;;;;;;;11.97;8.20;;;0.20;84.90;;;;;;10341804;28;20297;-73
2022/03/08 01:55:46;;;;;;;13.33;8.53;;;0.10;85.30;;;;;;10367450;28;20291;-74
2022/03/08 02:00:50;;;;;;;13.07;8.13;;;0.10;86.00;;;;;;10352142;28;20291;-74
2022/03/08 02:05:54;;;;;;;13.20;8.60;;;0.00;87.00;;;;;;10349385;28;20221;-73
2022/03/08 02:10:54;;;;;;;14.37;8.30;;;0.00;87.40;;;;;;10352068;28;20689;-74
2022/03/08 02:15:55;;;;;;;14.33;7.57;;;0.00;87.40;;;;;;10350966;28;20222;-74
2022/03/08 02:20:56;;;;;;;11.10;7.70;;;0.00;87.40;;;;;;10356117;28;20225;-74
2022/03/08 02:25:57;;;;;;;12.13;7.77;;;0.00;87.20;;;;;;10349135;28;20312;-73
2022/03/08 02:30:58;;;;;;;11.30;7.77;;;-0.10;88.00;;;;;;10357274;28;20305;-74
2022/03/08 02:35:59;;;;;;;11.40;6.97;;;-0.10;88.90;;;;;;10348188;28;20717;-73
2022/03/08 02:41:00;;;;;;;11.43;7.40;;;-0.10;89.60;;;;;;10353501;28;20240;-74
2022/03/08 02:46:16;;;;;;;10.03;7.67;;;-0.10;90.10;;;;;;10350717;28;20631;-75
2022/03/08 02:51:17;;;;;;;10.20;7.10;;;-0.10;90.60;;;;;;10352561;28;20231;-75
2022/03/08 02:56:23;;;;;;;10.37;7.73;;;-0.10;90.70;;;;;;10347337;28;20228;-75
2022/03/08 03:01:24;;;;;;;11.83;8.33;;;-0.10;91.60;;;;;;10360982;28;20636;-75
2022/03/08 03:06:24;;;;;;;11.03;8.20;;;-0.20;92.50;;;;;;10341367;28;20226;-75
2022/03/08 03:11:42;;;;;;;11.90;7.67;;;-0.20;93.00;;;;;;10351004;28;20229;-76
2022/03/08 03:16:51;;;;;;;10.63;7.90;;;-0.30;94.00;;;;;;10353148;28;20288;-74
2022/03/08 03:22:34;;;;;;;10.50;7.73;;;-0.20;94.50;;;;;;10334449;28;20248;-76
2022/03/08 03:28:10;;;;;;;9.90;7.33;;;-0.40;94.70;;;;;;10348668;28;20221;-76
2022/03/08 03:33:18;;;;;;;12.13;7.40;;;-0.50;95.50;;;;;;10364133;28;20308;-75
2022/03/08 03:38:21;;;;;;;11.57;7.80;;;-0.50;96.00;;;;;;10350015;28;20316;-75
2022/03/08 03:43:25;;;;;;;19.67;8.90;;;-0.30;96.10;;;;;;10353692;28;20284;-75
2022/03/08 03:48:30;;;;;;;13.87;7.60;;;-0.20;96.30;;;;;;10350123;28;20226;-75
2022/03/08 03:53:31;;;;;;;14.77;7.63;;;-0.20;97.00;;;;;;10351861;28;20868;-75
2022/03/08 03:58:32;;;;;;;12.63;7.23;;;-0.20;97.50;;;;;;10347638;28;20304;-75
2022/03/08 04:03:43;;;;;;;11.43;7.07;;;-0.40;97.90;;;;;;10349168;28;20245;-74
2022/03/08 04:08:44;;;;;;;11.43;7.47;;;-0.40;98.60;;;;;;10312341;28;20359;-75
2022/03/08 04:13:48;;;;;;;15.33;7.60;;;-0.40;99.40;;;;;;10354403;28;20288;-76
2022/03/08 04:19:01;;;;;;;12.30;6.97;;;-0.40;99.90;;;;;;10345162;28;20268;-74
2022/03/08 04:24:08;;;;;;;11.07;6.97;;;-0.60;99.90;;;;;;10350928;28;20220;-75
2022/03/08 04:29:16;;;;;;;10.07;6.83;;;-0.50;99.90;;;;;;10347480;28;20696;-74
2022/03/08 04:34:17;;;;;;;11.70;6.97;;;-0.60;99.90;;;;;;10357503;28;20252;-75
2022/03/08 04:39:23;;;;;;;9.20;6.60;;;-0.60;99.90;;;;;;10355368;28;20845;-75
2022/03/08 04:44:34;;;;;;;11.33;6.67;;;-0.80;99.90;;;;;;10357566;28;20213;-75
2022/03/08 04:49:34;;;;;;;12.50;7.23;;;-0.90;99.90;;;;;;10353726;28;20218;-73
2022/03/08 04:54:38;;;;;;;10.90;7.43;;;-0.90;99.90;;;;;;10351539;28;20241;-74
2022/03/08 04:59:39;;;;;;;10.17;7.07;;;-0.90;99.90;;;;;;10358848;28;20312;-75
2022/03/08 05:04:40;;;;;;;11.37;7.43;;;-0.90;99.90;;;;;;10352122;28;20272;-74
2022/03/08 05:09:40;;;;;;;12.93;7.77;;;-0.90;99.90;;;;;;10351767;28;20225;-75
2022/03/08 05:14:41;;;;;;;9.40;7.13;;;-0.90;99.90;;;;;;10356976;28;20220;-74
2022/03/08 05:19:45;;;;;;;13.63;7.23;;;-0.90;99.90;;;;;;10357962;28;20235;-73
2022/03/08 05:24:45;;;;;;;12.03;7.33;;;-0.90;99.90;;;;;;10340019;28;20237;-74
2022/03/08 05:29:47;;;;;;;11.53;7.97;;;-0.80;99.90;;;;;;10351778;28;20221;-74
2022/03/08 05:34:47;;;;;;;13.60;8.00;;;-0.70;99.90;;;;;;10350163;28;20224;-75
2022/03/08 05:39:48;;;;;;;11.20;7.40;;;-0.70;99.90;;;;;;10349821;28;20229;-74
2022/03/08 05:44:48;;;;;;;13.10;7.80;;;-0.80;99.90;;;;;;10349714;28;20584;-75
2022/03/08 05:49:49;;;;;;;15.53;8.03;;;-0.90;99.90;;;;;;10355261;28;20751;-75
2022/03/08 05:54:49;;;;;;;15.13;8.47;;;-1.00;99.90;;;;;;10355651;28;20249;-74
2022/03/08 05:59:50;;;;;;;11.90;8.30;;;-1.00;99.90;;;;;;10339974;28;20301;-74
2022/03/08 06:04:51;;;;;;;10.67;7.03;;;-0.90;99.90;;;;;;10349657;28;20218;-75
2022/03/08 06:09:51;;;;;;;13.63;8.00;;;-0.90;99.90;;;;;;10347924;28;20592;-73
2022/03/08 06:14:52;;;;;;;12.23;8.27;;;-0.90;99.90;;;;;;10347664;28;20217;-69
2022/03/08 06:19:52;;;;;;;14.47;8.70;;;-0.80;99.90;;;;;;10348376;28;20218;-71
2022/03/08 06:24:53;;;;;;;13.77;8.23;;;-0.60;99.90;;;;;;10347954;28;20210;-70
2022/03/08 06:29:54;;;;;;;14.47;8.27;;;-0.50;99.90;;;;;;10351716;28;20223;-71
2022/03/08 06:34:54;;;;;;;13.13;7.73;;;-0.30;99.90;;;;;;10346739;28;20210;-70
2022/03/08 06:39:55;;;;;;;11.17;7.80;;;-0.20;99.90;;;;;;10352037;28;20696;-70
2022/03/08 06:44:55;;;;;;;12.53;7.57;;;-0.10;99.90;;;;;;10346683;28;20590;-70
2022/03/08 06:49:56;;;;;;;9.53;6.90;;;0.10;99.90;;;;;;10351614;28;20217;-75
2022/03/08 06:54:56;;;;;;;12.80;7.00;;;0.20;99.90;;;;;;10349626;28;20313;-75
2022/03/08 06:59:57;;;;;;;12.50;7.63;;;0.30;99.90;;;;;;10345862;28;20233;-75
2022/03/08 07:04:58;;;;;;;10.63;7.40;;;0.40;99.90;;;;;;10353470;28;20308;-75
2022/03/08 07:09:59;;;;;;;13.07;7.37;;;0.70;99.90;;;;;;10345811;28;20245;-74
2022/03/08 07:15:03;;;;;;;11.00;6.90;;;1.70;99.90;;;;;;10358303;28;20218;-75
2022/03/08 07:20:04;;;;;;;10.63;7.30;;;2.50;99.90;;;;;;10348226;28;20252;-74
2022/03/08 07:25:06;;;;;;;10.63;6.80;;;3.20;99.90;;;;;;10350440;28;20225;-74
2022/03/08 07:30:08;;;;;;;10.80;7.23;;;3.20;99.60;;;;;;10341816;28;20212;-75
2022/03/08 07:35:09;;;;;;;10.70;6.90;;;3.00;99.00;;;;;;10352951;28;20596;-73
2022/03/08 07:40:11;;;;;;;9.33;6.93;;;2.90;99.30;;;;;;10343551;28;20220;-75
2022/03/08 07:45:12;;;;;;;10.13;6.20;;;3.60;99.20;;;;;;10353535;28;20665;-75
2022/03/08 07:50:12;;;;;;;9.60;6.60;;;7.00;91.50;;;;;;10346107;28;20200;-74
2022/03/08 07:55:13;;;;;;;9.03;6.43;;;10.70;61.50;;;;;;10360679;28;20250;-75
2022/03/08 08:00:14;;;;;;;9.27;6.27;;;13.70;51.10;;;;;;10345780;28;20229;-75
2022/03/08 08:05:14;;;;;;;10.40;6.83;;;17.00;42.80;;;;;;10345678;28;20192;-74
2022/03/08 08:10:15;;;;;;;10.07;7.00;;;14.50;39.80;;;;;;10346424;28;20197;-74
2022/03/08 08:15:16;;;;;;;7.70;6.13;;;14.20;42.20;;;;;;10347257;28;20270;-75
2022/03/08 08:20:17;;;;;;;8.10;6.23;;;14.70;40.80;;;;;;10350157;28;20255;-75
2022/03/08 08:25:18;;;;;;;8.37;6.37;;;15.50;39.10;;;;;;10340375;28;20269;-75
2022/03/08 08:30:19;;;;;;;10.27;6.67;;;14.40;39.90;;;;;;10347635;28;20276;-76
2022/03/08 08:35:19;;;;;;;8.00;6.33;;;14.40;40.30;;;;;;10341979;28;20190;-74
2022/03/08 08:40:20;;;;;;;8.93;7.47;;;13.90;40.50;;;;;;10354332;28;20235;-75
2022/03/08 08:45:21;;;;;;;6.97;6.27;;;14.10;40.90;;;;;;10346059;28;20185;-74
2022/03/08 08:50:21;;;;;;;7.33;6.47;;;14.40;40.90;;;;;;10350701;28;20229;-76
2022/03/08 08:55:23;;;;;;;8.47;6.40;;;14.50;40.00;;;;;;10352215;28;20199;-75
2022/03/08 09:00:24;;;;;;;8.07;6.33;;;14.60;39.70;;;;;;10348803;28;20308;-75
2022/03/08 09:05:24;;;;;;;8.40;6.50;;;15.60;38.50;;;;;;10348283;28;20653;-75
2022/03/08 09:10:25;;;;;;;8.93;6.53;;;13.50;40.30;;;;;;10341929;28;20636;-75
2022/03/08 09:15:26;;;;;;;7.40;6.47;;;14.70;40.80;;;;;;10349059;28;20222;-74
2022/03/08 09:20:27;;;;;;;9.33;6.60;;;14.70;40.20;;;;;;10345375;28;20281;-75
2022/03/08 09:25:27;;;;;;;6.73;6.00;;;15.80;40.00;;;;;;10350409;28;20236;-76
2022/03/08 09:30:29;;;;;;;6.77;6.07;;;16.30;37.70;;;;;;10357441;28;20213;-74
2022/03/08 09:35:30;;;;;;;8.07;6.50;;;16.00;37.20;;;;;;10347365;28;20214;-74
2022/03/08 09:40:31;;;;;;;6.30;5.70;;;16.70;36.20;;;;;;10350945;28;20234;-76
2022/03/08 09:45:32;;;;;;;9.47;7.73;;;16.50;38.10;;;;;;10355333;28;20613;-75
2022/03/08 09:50:33;;;;;;;7.90;5.70;;;16.50;37.70;;;;;;10341075;28;20244;-76
2022/03/08 09:55:34;;;;;;;7.33;5.87;;;17.30;37.20;;;;;;10353533;28;20426;-75
2022/03/08 10:00:35;;;;;;;7.80;5.13;;;16.50;37.40;;;;;;10354806;28;20221;-75
2022/03/08 10:05:40;;;;;;;7.07;5.10;;;16.40;36.30;;;;;;10347954;28;20271;-75
2022/03/08 10:10:51;;;;;;;5.27;4.63;;;16.20;35.80;;;;;;10363534;28;20221;-74
2022/03/08 10:16:09;;;;;;;5.07;4.40;;;18.00;33.40;;;;;;10342149;28;20217;-75
2022/03/08 10:21:31;;;;;;;6.57;4.50;;;18.00;31.90;;;;;;10344331;28;20228;-75
2022/03/08 10:26:58;;;;;;;5.10;4.60;;;19.10;30.20;;;;;;10348660;28;20218;-75
2022/03/08 10:32:09;;;;;;;5.43;4.30;;;19.20;31.40;;;;;;10342230;28;20229;-75
2022/03/08 10:37:20;;;;;;;8.83;4.27;;;19.60;29.30;;;;;;10350415;28;20225;-75
2022/03/08 10:42:28;;;;;;;5.63;4.17;;;17.40;30.60;;;;;;10345780;28;20238;-76
2022/03/08 10:47:43;;;;;;;6.93;3.80;;;18.10;30.90;;;;;;10345427;28;20233;-75
2022/03/08 10:52:46;;;;;;;11.33;4.57;;;16.70;32.40;;;;;;10353874;28;20229;-76
2022/03/08 10:57:55;;;;;;;6.40;4.00;;;15.90;32.20;;;;;;10336967;28;20223;-74
2022/03/08 11:03:01;;;;;;;6.17;4.50;;;16.40;32.30;;;;;;10360911;28;20249;-76
2022/03/08 11:08:03;;;;;;;5.20;4.20;;;17.00;32.20;;;;;;10355764;28;20231;-75
2022/03/08 11:13:05;;;;;;;7.50;4.30;;;18.20;30.90;;;;;;10352055;28;20229;-74
2022/03/08 11:18:12;;;;;;;5.80;4.00;;;17.70;30.90;;;;;;10346937;28;20762;-74
2022/03/08 11:23:13;;;;;;;7.90;4.40;;;19.70;28.80;;;;;;10349949;28;20229;-74
2022/03/08 11:28:14;;;;;;;5.57;4.87;;;17.70;29.60;;;;;;10348330;28;20225;-75
2022/03/08 11:33:43;;;;;;;4.50;4.10;;;17.20;30.80;;;;;;10347093;28;20219;-75
2022/03/08 11:39:04;;;;;;;5.10;4.10;;;14.50;34.70;;;;;;10268451;28;20229;-74
2022/03/08 11:44:06;;;;;;;5.50;3.80;;;12.10;39.60;;;;;;10320999;28;20233;-74
2022/03/08 11:49:06;;;;;;;4.97;3.93;;;10.50;43.00;;;;;;10348916;28;20678;-75
2022/03/08 11:54:24;;;;;;;5.60;4.30;;;9.90;43.50;;;;;;10356100;28;20256;-75
2022/03/08 11:59:24;;;;;;;6.47;4.10;;;9.90;44.80;;;;;;10349754;28;20569;-75
2022/03/08 12:04:25;;;;;;;9.37;4.60;;;9.70;44.80;;;;;;10351906;28;20221;-75
2022/03/08 12:09:26;;;;;;;7.70;4.40;;;9.80;45.40;;;;;;10347585;28;20243;-76
2022/03/08 12:14:36;;;;;;;5.70;4.50;;;9.80;45.80;;;;;;10347008;28;20214;-76
2022/03/08 12:19:40;;;;;;;8.20;4.87;;;9.70;45.60;;;;;;10355851;28;20240;-76
2022/03/08 12:24:48;;;;;;;5.60;4.50;;;9.50;45.20;;;;;;10343065;28;20221;-75
2022/03/08 12:30:08;;;;;;;6.93;4.50;;;9.50;46.70;;;;;;10336032;28;20213;-75
2022/03/08 12:35:21;;;;;;;8.07;5.20;;;9.40;46.90;;;;;;10346964;28;20213;-75
2022/03/08 12:40:28;;;;;;;6.13;5.27;;;9.40;46.90;;;;;;10344497;28;20315;-76
2022/03/08 12:45:35;;;;;;;5.97;5.10;;;9.50;47.10;;;;;;10343602;28;20599;-74
2022/03/08 12:50:44;;;;;;;7.80;5.73;;;9.50;46.90;;;;;;10352331;28;20220;-76
2022/03/08 12:55:48;;;;;;;8.07;4.73;;;9.50;47.00;;;;;;10344516;28;20216;-76
2022/03/08 13:00:52;;;;;;;6.47;4.83;;;9.60;46.80;;;;;;10365467;28;20232;-74
2022/03/08 13:05:58;;;;;;;5.80;4.93;;;9.60;47.00;;;;;;10359790;28;20221;-76
2022/03/08 13:11:07;;;;;;;6.00;5.10;;;9.60;47.20;;;;;;10359604;28;20224;-76
2022/03/08 13:16:09;;;;;;;7.37;4.87;;;9.60;47.20;;;;;;10367737;28;20573;-76
2022/03/08 13:21:12;;;;;;;6.97;4.50;;;9.70;47.70;;;;;;10360043;28;20229;-74
2022/03/08 13:26:49;;;;;;;7.07;4.20;;;9.70;47.30;;;;;;10350112;28;20231;-74
2022/03/08 13:31:34;;;;;;;5.67;4.50;;;9.80;46.50;;;;;;10357565;28;20214;-76
2022/03/08 13:36:34;;;;;;;5.23;3.90;;;9.80;45.90;;;;;;10365633;28;20724;-74
2022/03/08 13:41:35;;;;;;;6.13;4.63;;;9.90;45.90;;;;;;10366030;28;20744;-75
2022/03/08 13:46:41;;;;;;;5.97;4.87;;;9.90;45.70;;;;;;10354700;28;20750;-74
2022/03/08 13:51:43;;;;;;;5.90;4.17;;;10.00;46.10;;;;;;10351763;28;20217;-75
2022/03/08 13:56:48;;;;;;;8.87;4.33;;;10.20;44.50;;;;;;10350266;28;20283;-74
2022/03/08 14:02:17;;;;;;;6.63;4.37;;;10.20;45.20;;;;;;10344904;28;21002;-76
2022/03/08 14:07:20;;;;;;;6.00;4.20;;;10.30;44.00;;;;;;10339631;28;20253;-75
2022/03/08 14:12:21;;;;;;;9.77;4.63;;;10.30;45.30;;;;;;10348450;28;20317;-75
2022/03/08 14:17:31;;;;;;;5.47;4.43;;;10.20;44.80;;;;;;10354471;28;20289;-76
2022/03/08 14:22:32;;;;;;;5.77;4.10;;;10.10;43.90;;;;;;10353615;28;20689;-76
2022/03/08 14:27:49;;;;;;;5.17;4.23;;;10.20;44.10;;;;;;10355252;28;20256;-75
2022/03/08 14:32:50;;;;;;;6.10;4.53;;;10.10;45.30;;;;;;10346661;28;20218;-76
2022/03/08 14:38:03;;;;;;;5.60;3.90;;;10.10;44.70;;;;;;10356543;28;20251;-76
2022/03/08 14:43:12;;;;;;;6.63;3.73;;;10.10;43.70;;;;;;10354290;28;20754;-75
2022/03/08 14:48:13;;;;;;;7.00;4.13;;;10.10;44.10;;;;;;10358632;28;20219;-76
2022/03/08 14:53:13;;;;;;;8.80;4.40;;;10.10;44.00;;;;;;10351479;28;20226;-75
2022/03/08 14:58:14;;;;;;;5.33;3.83;;;10.10;44.30;;;;;;10355920;28;20224;-76
2022/03/08 15:03:14;;;;;;;6.70;4.07;;;10.10;44.60;;;;;;10366843;28;20693;-76
2022/03/08 15:08:15;;;;;;;4.40;3.90;;;10.10;44.30;;;;;;10349671;28;20314;-75
2022/03/08 15:13:16;;;;;;;7.23;4.57;;;10.10;44.40;;;;;;10356957;28;20943;-75
2022/03/08 15:18:16;;;;;;;10.90;4.80;;;10.00;44.40;;;;;;10351184;28;20220;-75
2022/03/08 15:23:17;;;;;;;7.20;4.17;;;10.00;44.60;;;;;;10344113;28;20221;-75
2022/03/08 15:28:18;;;;;;;7.13;4.80;;;10.00;44.80;;;;;;10348542;28;20312;-75
2022/03/08 15:33:18;;;;;;;5.50;4.10;;;9.90;44.80;;;;;;10348615;28;20217;-74
2022/03/08 15:38:19;;;;;;;6.77;4.17;;;9.80;45.20;;;;;;10345098;28;20297;-75
2022/03/08 15:43:20;;;;;;;7.50;4.43;;;9.70;45.30;;;;;;10346855;28;20251;-76
2022/03/08 15:48:21;;;;;;;6.40;4.40;;;9.60;45.50;;;;;;10356933;28;20348;-75
2022/03/08 15:53:21;;;;;;;8.13;4.37;;;9.60;45.80;;;;;;10358052;28;20268;-76
2022/03/08 15:58:22;;;;;;;6.27;4.03;;;9.50;45.30;;;;;;10350625;28;20222;-76
2022/03/08 16:03:23;;;;;;;9.70;4.10;;;9.50;45.30;;;;;;10344015;28;20229;-75
2022/03/08 16:08:27;;;;;;;6.90;4.37;;;9.40;45.70;;;;;;10355654;28;20664;-74
2022/03/08 16:13:27;;;;;;;7.73;4.40;;;9.40;45.70;;;;;;10337334;28;20293;-75
2022/03/08 16:18:28;;;;;;;6.27;4.43;;;9.30;45.70;;;;;;10364200;28;20249;-76
2022/03/08 16:23:29;;;;;;;6.40;4.60;;;9.20;45.90;;;;;;10349194;28;20236;-74
2022/03/08 16:28:30;;;;;;;6.73;4.20;;;9.20;46.10;;;;;;10353172;28;20599;-76
2022/03/08 16:33:30;;;;;;;8.93;4.53;;;9.10;46.20;;;;;;10350205;28;20292;-75
2022/03/08 16:38:31;;;;;;;10.57;4.47;;;9.10;46.60;;;;;;10343493;28;20217;-75
2022/03/08 16:43:37;;;;;;;11.10;4.93;;;9.00;46.80;;;;;;10344420;28;20709;-75
2022/03/08 16:48:38;;;;;;;7.20;4.83;;;8.90;47.10;;;;;;10344261;28;20301;-75
2022/03/08 16:53:39;;;;;;;7.33;4.73;;;8.80;47.40;;;;;;10353411;28;20803;-75
2022/03/08 16:58:48;;;;;;;8.00;5.00;;;8.80;47.70;;;;;;10353396;28;20317;-76
2022/03/08 17:03:49;;;;;;;5.23;4.50;;;8.70;48.30;;;;;;10321519;28;20228;-76
2022/03/08 17:08:50;;;;;;;7.00;4.90;;;8.60;48.60;;;;;;10344720;28;20301;-75
2022/03/08 17:13:50;;;;;;;7.07;5.77;;;8.50;49.00;;;;;;10344806;28;20309;-75
2022/03/08 17:18:53;;;;;;;9.47;5.03;;;8.40;49.50;;;;;;10345541;28;20595;-76
2022/03/08 17:23:57;;;;;;;10.00;5.33;;;8.20;49.70;;;;;;10350845;28;20251;-75
2022/03/08 17:28:57;;;;;;;7.27;5.50;;;8.20;50.20;;;;;;10338105;28;20288;-75
2022/03/08 17:33:59;;;;;;;6.33;5.00;;;8.00;50.60;;;;;;10346156;28;20223;-75
2022/03/08 17:39:00;;;;;;;8.40;5.03;;;7.80;51.10;;;;;;10347218;28;20301;-75
2022/03/08 17:44:01;;;;;;;9.00;5.83;;;7.60;51.60;;;;;;10354495;28;20818;-76
2022/03/08 17:49:02;;;;;;;10.10;5.87;;;7.60;51.90;;;;;;10351095;28;20218;-76
2022/03/08 17:54:02;;;;;;;9.00;5.30;;;7.40;52.10;;;;;;10359716;28;20281;-76
2022/03/08 17:59:04;;;;;;;11.83;5.13;;;7.40;52.30;;;;;;10354416;28;20610;-75
2022/03/08 18:04:04;;;;;;;6.17;5.07;;;7.30;52.50;;;;;;10353844;28;20240;-75
2022/03/08 18:09:08;;;;;;;6.50;4.73;;;7.30;52.30;;;;;;10347975;28;20237;-75
2022/03/08 18:14:08;;;;;;;6.97;5.10;;;7.20;52.10;;;;;;10348266;28;20217;-76
2022/03/08 18:19:09;;;;;;;7.73;4.87;;;7.20;52.60;;;;;;10351426;28;20229;-76
2022/03/08 18:24:11;;;;;;;8.20;5.33;;;7.00;52.90;;;;;;10351498;28;20230;-76
2022/03/08 18:29:11;;;;;;;7.33;5.47;;;6.90;53.30;;;;;;10350935;28;20236;-75
2022/03/08 18:34:13;;;;;;;11.20;5.93;;;6.70;53.50;;;;;;10356261;28;20225;-75
2022/03/08 18:39:14;;;;;;;8.33;5.87;;;6.70;53.70;;;;;;10351884;28;20239;-73
2022/03/08 18:44:16;;;;;;;9.03;5.40;;;6.70;53.70;;;;;;10350628;28;20234;-75
2022/03/08 18:49:17;;;;;;;8.60;5.60;;;6.50;53.90;;;;;;10351741;28;20251;-75
2022/03/08 18:54:17;;;;;;;9.10;5.70;;;6.20;55.30;;;;;;10357740;28;20225;-75
2022/03/08 18:59:18;;;;;;;10.10;6.87;;;5.90;57.00;;;;;;10366938;28;20726;-74
2022/03/08 19:04:20;;;;;;;11.67;7.70;;;5.60;58.50;;;;;;10349539;28;20230;-75
2022/03/08 19:09:21;;;;;;;13.77;8.13;;;5.50;59.30;;;;;;10353684;28;20573;-74
2022/03/08 19:14:22;;;;;;;13.50;6.57;;;5.50;59.20;;;;;;10349641;28;20728;-76
2022/03/08 19:19:26;;;;;;;11.03;6.17;;;5.50;57.80;;;;;;10357368;28;20253;-74
2022/03/08 19:24:26;;;;;;;9.90;5.87;;;5.60;57.30;;;;;;10337173;28;20241;-74
2022/03/08 19:29:27;;;;;;;9.77;6.20;;;5.60;57.10;;;;;;10346230;28;20240;-74
2022/03/08 19:34:28;;;;;;;9.17;6.23;;;5.70;57.10;;;;;;10337480;28;20217;-74
2022/03/08 19:39:28;;;;;;;10.60;6.03;;;5.70;56.90;;;;;;10352246;28;20225;-75
2022/03/08 19:44:29;;;;;;;9.03;6.30;;;5.80;56.80;;;;;;10347808;28;20446;-76
2022/03/08 19:49:29;;;;;;;9.07;5.60;;;5.50;57.00;;;;;;10343781;28;20604;-75
2022/03/08 19:54:30;;;;;;;13.03;8.33;;;5.30;57.10;;;;;;10348970;28;20210;-75
2022/03/08 19:59:31;;;;;;;10.83;7.20;;;5.20;58.10;;;;;;10338290;28;20229;-74
2022/03/08 20:04:31;;;;;;;10.40;6.03;;;5.20;58.70;;;;;;10347381;28;20280;-76
2022/03/08 20:09:33;;;;;;;10.23;6.20;;;5.20;58.10;;;;;;10344185;28;20222;-74
2022/03/08 20:14:34;;;;;;;9.13;6.07;;;5.10;57.90;;;;;;10345837;28;20268;-74
2022/03/08 20:19:35;;;;;;;16.90;9.00;;;5.00;58.10;;;;;;10349977;28;20228;-74
2022/03/08 20:24:36;;;;;;;12.87;6.63;;;4.90;59.90;;;;;;10342228;28;20263;-75
2022/03/08 20:29:36;;;;;;;8.93;6.60;;;4.80;60.00;;;;;;10346334;28;20229;-75
2022/03/08 20:34:38;;;;;;;12.67;7.00;;;4.70;60.00;;;;;;10324067;28;20235;-75
2022/03/08 20:39:39;;;;;;;9.70;5.93;;;4.70;60.20;;;;;;10349660;28;20232;-75
2022/03/08 20:44:42;;;;;;;9.87;4.97;;;4.60;60.30;;;;;;10341350;28;20243;-75
2022/03/08 20:49:44;;;;;;;7.67;5.13;;;4.60;59.90;;;;;;10342504;28;20236;-75
2022/03/08 20:54:44;;;;;;;7.00;4.20;;;4.70;59.30;;;;;;10345846;28;20236;-74
2022/03/08 20:59:45;;;;;;;7.50;4.10;;;4.70;58.70;;;;;;10341087;28;20755;-74
2022/03/08 21:04:46;;;;;;;6.53;4.33;;;4.80;58.40;;;;;;10350048;28;20245;-74
2022/03/08 21:09:46;;;;;;;6.80;3.97;;;4.80;57.90;;;;;;10355010;28;20230;-74
2022/03/08 21:14:50;;;;;;;7.83;4.10;;;4.90;57.80;;;;;;10351500;28;20312;-75
2022/03/08 21:19:50;;;;;;;5.50;4.00;;;4.90;57.60;;;;;;10357331;28;20233;-75
2022/03/08 21:24:51;;;;;;;6.73;3.90;;;4.90;57.40;;;;;;10355559;28;20233;-75
2022/03/08 21:29:52;;;;;;;6.13;4.00;;;4.90;57.10;;;;;;10348683;28;20312;-75
2022/03/08 21:34:53;;;;;;;6.33;3.80;;;4.90;57.00;;;;;;10355103;28;20589;-76
2022/03/08 21:39:53;;;;;;;5.80;4.00;;;4.90;56.80;;;;;;10349489;28;20222;-75
2022/03/08 21:44:54;;;;;;;8.67;3.93;;;4.90;56.80;;;;;;10357014;28;20237;-75
2022/03/08 21:49:54;;;;;;;7.10;4.90;;;4.90;56.80;;;;;;10351262;28;20791;-75
2022/03/08 21:54:56;;;;;;;6.90;4.10;;;4.90;57.00;;;;;;10350609;28;20315;-75
2022/03/08 21:59:57;;;;;;;7.40;4.50;;;4.80;56.90;;;;;;10343178;28;20221;-74
2022/03/08 22:04:57;;;;;;;6.77;4.30;;;4.70;57.30;;;;;;10343968;28;20313;-74
2022/03/08 22:09:59;;;;;;;4.97;3.70;;;4.60;57.40;;;;;;10344341;28;20695;-75
2022/03/08 22:15:00;;;;;;;6.27;4.17;;;4.60;57.30;;;;;;10345553;28;20259;-75
2022/03/08 22:20:01;;;;;;;6.00;4.37;;;4.60;57.30;;;;;;10345942;28;20263;-75
2022/03/08 22:25:02;;;;;;;5.23;3.83;;;4.60;57.40;;;;;;10347266;28;20336;-75
2022/03/08 22:30:05;;;;;;;7.87;4.30;;;4.50;57.60;;;;;;10345842;28;20779;-74
2022/03/08 22:35:06;;;;;;;6.77;4.60;;;4.50;58.00;;;;;;10347568;28;20225;-76
2022/03/08 22:40:07;;;;;;;6.83;4.73;;;4.40;58.10;;;;;;10351843;28;20201;-75
2022/03/08 22:45:09;;;;;;;7.13;4.43;;;4.30;58.40;;;;;;10348138;28;20273;-75
2022/03/08 22:55:50;;;;;;;;;;;;;;;;;;;;;
2022/03/08 23:01:12;;;;;;;6.67;4.67;;;4.00;59.50;;;;;;10334665;28;20220;-77
2022/03/08 23:07:12;;;;;;;6.10;4.27;;;4.00;59.60;;;;;;10348498;28;20223;-75
2022/03/08 23:12:23;;;;;;;;;;;;;;;;;;;;;
2022/03/08 23:24:14;;;;;;;7.10;3.97;;;3.90;59.80;;;;;;10342927;28;20229;-76
2022/03/08 23:29:57;;;;;;;9.27;4.87;;;3.90;59.80;;;;;;10440614;22;20234;-76
2022/03/08 23:41:35;;;;;;;8.17;5.00;;;4.00;59.40;;;;;;10377685;28;20225;-76
2022/03/08 23:46:55;;;;;;;6.00;4.30;;;3.90;59.50;;;;;;10403516;28;20255;-75
2022/03/08 23:52:02;;;;;;;8.20;4.93;;;3.90;59.70;;;;;;10400592;28;20213;-77
2022/03/08 23:57:11;;;;;;;7.93;4.97;;;3.70;61.00;;;;;;10401125;28;20212;-75
